createdAt,value
2019-03-19T00:00:12.173Z,3.30
2019-03-19T00:02:40.514Z,3.63
2019-03-19T00:05:06.900Z,3.70
2019-03-19T00:07:33.334Z,3.50
2019-03-19T00:09:59.785Z,5.73
2019-03-19T00:12:27.203Z,3.63
2019-03-19T00:14:53.640Z,2.80
2019-03-19T00:17:20.046Z,3.33
2019-03-19T00:19:46.459Z,3.93
2019-03-19T00:22:12.882Z,3.80
2019-03-19T00:24:39.307Z,3.80
2019-03-19T00:27:05.707Z,4.03
2019-03-19T00:29:32.124Z,3.33
2019-03-19T00:31:58.558Z,4.03
2019-03-19T00:34:24.962Z,3.60
2019-03-19T00:36:51.334Z,3.63
2019-03-19T00:39:17.831Z,3.70
2019-03-19T00:41:44.212Z,3.13
2019-03-19T00:44:10.695Z,4.63
2019-03-19T00:46:37.149Z,4.20
2019-03-19T00:49:03.642Z,4.17
2019-03-19T00:51:30.107Z,3.83
2019-03-19T00:53:56.625Z,4.00
2019-03-19T00:56:23.128Z,4.00
2019-03-19T00:58:49.508Z,3.67
2019-03-19T01:01:15.960Z,4.10
2019-03-19T01:03:42.401Z,3.73
2019-03-19T01:06:08.849Z,4.17
2019-03-19T01:08:35.212Z,4.57
2019-03-19T01:11:01.608Z,3.60
2019-03-19T01:13:28.007Z,4.20
2019-03-19T01:15:54.456Z,3.90
2019-03-19T01:18:20.771Z,4.57
2019-03-19T01:20:47.176Z,3.83
2019-03-19T01:23:13.648Z,4.20
2019-03-19T01:25:54.495Z,4.73
2019-03-19T01:28:08.282Z,4.63
2019-03-19T01:30:34.695Z,5.43
2019-03-19T01:33:01.100Z,5.83
2019-03-19T01:35:28.619Z,6.43
2019-03-19T01:37:55.012Z,7.00
2019-03-19T01:40:21.434Z,9.73
2019-03-19T01:42:47.862Z,11.03
2019-03-19T01:45:14.237Z,6.93
2019-03-19T01:47:41.644Z,6.30
2019-03-19T01:50:12.420Z,6.90
2019-03-19T01:52:38.833Z,4.77
2019-03-19T01:55:10.308Z,5.47
2019-03-19T01:57:36.686Z,5.40
2019-03-19T02:00:06.537Z,3.93
2019-03-19T02:02:32.916Z,3.70
2019-03-19T02:04:59.262Z,4.13
2019-03-19T02:07:25.673Z,3.80
2019-03-19T02:09:53.076Z,3.60
2019-03-19T02:12:19.477Z,4.93
2019-03-19T02:14:45.914Z,4.50
2019-03-19T02:17:12.764Z,3.97
2019-03-19T02:19:39.595Z,3.73
2019-03-19T02:22:06.004Z,3.03
2019-03-19T02:24:32.435Z,3.03
2019-03-19T02:26:58.857Z,3.73
2019-03-19T02:29:25.265Z,3.60
2019-03-19T02:31:51.717Z,3.47
2019-03-19T02:34:18.138Z,3.03
2019-03-19T02:36:44.574Z,3.50
2019-03-19T02:39:11.072Z,3.40
2019-03-19T02:41:37.494Z,3.03
2019-03-19T02:44:04.048Z,3.67
2019-03-19T02:46:30.518Z,3.57
2019-03-19T02:48:56.906Z,2.90
2019-03-19T02:51:23.330Z,3.23
2019-03-19T02:53:49.702Z,3.53
2019-03-19T02:56:31.379Z,4.27
2019-03-19T02:58:44.660Z,3.50
2019-03-19T03:01:11.082Z,4.33
2019-03-19T03:03:37.505Z,3.13
2019-03-19T03:06:03.818Z,3.23
2019-03-19T03:08:30.238Z,3.40
2019-03-19T03:10:57.661Z,3.70
2019-03-19T03:13:24.063Z,3.60
2019-03-19T03:15:50.426Z,3.77
2019-03-19T03:18:16.951Z,4.40
2019-03-19T03:20:43.357Z,3.17
2019-03-19T03:23:09.797Z,3.77
2019-03-19T03:25:36.249Z,3.63
2019-03-19T03:28:02.901Z,4.00
2019-03-19T03:30:29.352Z,3.60
2019-03-19T03:32:55.769Z,3.93
2019-03-19T03:35:22.377Z,3.80
2019-03-19T03:37:48.830Z,3.53
2019-03-19T03:40:16.512Z,4.30
2019-03-19T03:42:43.495Z,3.40
2019-03-19T03:45:11.752Z,4.80
2019-03-19T03:47:38.155Z,5.23
2019-03-19T03:50:08.232Z,5.43
2019-03-19T03:52:34.719Z,6.20
2019-03-19T03:55:01.170Z,6.13
2019-03-19T03:57:27.609Z,7.27
2019-03-19T03:59:54.049Z,7.83
2019-03-19T04:02:20.425Z,6.17
2019-03-19T04:04:46.829Z,5.73
2019-03-19T04:07:13.235Z,7.20
2019-03-19T04:09:39.663Z,7.20
2019-03-19T04:12:06.099Z,9.27
2019-03-19T04:14:32.542Z,7.37
2019-03-19T04:16:59.016Z,8.73
2019-03-19T04:19:25.426Z,6.77
2019-03-19T04:21:51.846Z,6.60
2019-03-19T04:24:18.260Z,5.77
2019-03-19T04:26:44.663Z,7.83
2019-03-19T04:29:11.084Z,7.33
2019-03-19T04:31:37.537Z,8.60
2019-03-19T04:34:03.941Z,6.17
2019-03-19T04:36:30.379Z,6.27
2019-03-19T04:38:56.831Z,6.60
2019-03-19T04:41:23.238Z,6.03
2019-03-19T04:43:50.745Z,6.20
2019-03-19T04:46:17.158Z,6.67
2019-03-19T04:48:43.490Z,6.20
2019-03-19T04:51:09.905Z,6.37
2019-03-19T04:53:36.269Z,5.30
2019-03-19T04:56:02.866Z,6.10
2019-03-19T04:58:29.262Z,6.17
2019-03-19T05:00:55.655Z,5.30
2019-03-19T05:03:22.079Z,5.10
2019-03-19T05:05:48.486Z,6.30
2019-03-19T05:08:14.961Z,5.60
2019-03-19T05:10:41.355Z,6.33
2019-03-19T05:13:07.801Z,6.73
2019-03-19T05:15:34.269Z,8.87
2019-03-19T05:18:00.668Z,15.13
2019-03-19T05:20:27.102Z,8.93
2019-03-19T05:22:53.548Z,7.10
2019-03-19T05:25:19.944Z,5.77
2019-03-19T05:27:46.414Z,5.93
2019-03-19T05:30:17.036Z,6.30
2019-03-19T05:32:43.450Z,5.23
2019-03-19T05:35:09.853Z,5.73
2019-03-19T05:37:37.351Z,5.30
2019-03-19T05:40:15.245Z,5.90
2019-03-19T05:42:41.752Z,5.27
2019-03-19T05:45:12.205Z,5.33
2019-03-19T05:47:40.517Z,5.30
2019-03-19T05:50:09.726Z,6.13
2019-03-19T05:52:37.140Z,6.17
2019-03-19T05:55:05.357Z,6.30
2019-03-19T05:57:31.791Z,5.00
2019-03-19T05:59:58.205Z,5.60
2019-03-19T06:02:25.347Z,5.47
2019-03-19T06:04:51.748Z,5.53
2019-03-19T06:07:18.161Z,5.93
2019-03-19T06:09:44.552Z,6.20
2019-03-19T06:12:10.964Z,6.30
2019-03-19T06:14:37.364Z,6.00
2019-03-19T06:17:03.811Z,6.00
2019-03-19T06:19:30.226Z,6.67
2019-03-19T06:21:56.914Z,8.23
2019-03-19T06:24:23.473Z,10.47
2019-03-19T06:26:50.025Z,8.67
2019-03-19T06:29:16.487Z,8.37
2019-03-19T06:31:42.936Z,9.27
2019-03-19T06:34:09.339Z,8.60
2019-03-19T06:36:35.812Z,8.37
2019-03-19T06:39:04.782Z,14.93
2019-03-19T06:41:31.266Z,11.97
2019-03-19T06:43:57.647Z,8.37
2019-03-19T06:46:24.080Z,8.07
2019-03-19T06:48:50.570Z,8.87
2019-03-19T06:51:17.735Z,8.90
2019-03-19T06:53:44.175Z,8.73
2019-03-19T06:56:10.676Z,14.37
2019-03-19T06:58:37.072Z,17.20
2019-03-19T07:01:03.542Z,13.93
2019-03-19T07:03:29.965Z,7.07
2019-03-19T07:05:56.435Z,11.00
2019-03-19T07:08:22.817Z,6.50
2019-03-19T07:10:49.252Z,6.87
2019-03-19T07:13:15.698Z,5.40
2019-03-19T07:15:42.121Z,6.70
2019-03-19T07:18:08.531Z,7.00
2019-03-19T07:20:34.958Z,6.23
2019-03-19T07:23:01.411Z,5.60
2019-03-19T07:25:27.812Z,4.70
2019-03-19T07:27:54.486Z,4.20
2019-03-19T07:30:22.162Z,4.10
2019-03-19T07:32:48.582Z,3.93
2019-03-19T07:35:16.022Z,4.50
2019-03-19T07:37:42.429Z,6.53
2019-03-19T07:40:13.507Z,7.00
2019-03-19T07:42:40.034Z,7.53
2019-03-19T07:45:09.723Z,6.93
2019-03-19T07:47:36.169Z,7.17
2019-03-19T07:50:05.688Z,7.53
2019-03-19T07:52:32.061Z,9.10
2019-03-19T07:54:58.517Z,5.40
2019-03-19T07:57:24.926Z,5.97
2019-03-19T07:59:51.273Z,6.57
2019-03-19T08:02:17.688Z,4.50
2019-03-19T08:04:44.090Z,4.50
2019-03-19T08:07:11.237Z,4.70
2019-03-19T08:09:37.724Z,7.13
2019-03-19T08:12:04.346Z,5.57
2019-03-19T08:14:30.671Z,6.60
2019-03-19T08:16:57.086Z,11.43
2019-03-19T08:19:23.453Z,3.70
2019-03-19T08:21:49.910Z,7.33
2019-03-19T08:24:16.359Z,10.07
2019-03-19T08:26:42.846Z,5.70
2019-03-19T08:29:09.237Z,10.83
2019-03-19T08:31:35.582Z,9.27
2019-03-19T08:34:01.952Z,3.87
2019-03-19T08:36:28.409Z,4.70
2019-03-19T08:38:54.885Z,4.37
2019-03-19T08:41:21.304Z,7.90
2019-03-19T08:43:48.745Z,5.37
2019-03-19T08:46:15.170Z,5.60
2019-03-19T08:48:41.504Z,13.83
2019-03-19T08:51:07.905Z,15.93
2019-03-19T08:53:34.239Z,6.05
2019-03-19T08:56:01.176Z,7.57
2019-03-19T08:58:27.526Z,9.90
2019-03-19T09:00:53.935Z,7.53
2019-03-19T09:03:20.272Z,8.20
2019-03-19T09:05:46.764Z,7.30
2019-03-19T09:08:13.090Z,12.53
2019-03-19T09:10:39.558Z,12.17
2019-03-19T09:13:06.083Z,9.00
2019-03-19T09:15:32.551Z,9.87
2019-03-19T09:17:58.974Z,8.30
2019-03-19T09:20:25.385Z,12.57
2019-03-19T09:22:51.818Z,4.63
2019-03-19T09:25:18.215Z,3.53
2019-03-19T09:27:44.770Z,3.43
2019-03-19T09:30:18.176Z,7.67
2019-03-19T09:32:44.623Z,7.27
2019-03-19T09:35:11.045Z,23.47
2019-03-19T09:37:44.107Z,24.83
2019-03-19T09:40:09.477Z,17.63
2019-03-19T09:42:35.849Z,11.35
2019-03-19T09:45:04.777Z,9.63
2019-03-19T09:47:31.412Z,6.40
2019-03-19T09:49:58.923Z,4.13
2019-03-19T09:52:25.721Z,4.10
2019-03-19T09:54:52.769Z,3.07
2019-03-19T09:57:19.336Z,4.30
2019-03-19T09:59:45.768Z,4.50
2019-03-19T10:02:12.166Z,3.20
2019-03-19T10:04:38.581Z,5.07
2019-03-19T10:07:06.271Z,3.70
2019-03-19T10:09:33.068Z,5.73
2019-03-19T10:11:59.476Z,2.60
2019-03-19T10:14:25.880Z,3.00
2019-03-19T10:16:52.347Z,4.78
2019-03-19T10:19:18.749Z,2.70
2019-03-19T10:21:45.147Z,5.28
2019-03-19T10:24:11.597Z,2.20
2019-03-19T10:26:38.238Z,5.80
2019-03-19T10:29:04.709Z,4.85
2019-03-19T10:31:31.100Z,6.75
2019-03-19T10:33:57.599Z,3.20
2019-03-19T10:36:24.048Z,2.33
2019-03-19T10:38:50.774Z,2.02
2019-03-19T10:41:17.369Z,2.37
2019-03-19T10:43:44.151Z,2.52
2019-03-19T10:46:10.636Z,2.22
2019-03-19T10:48:37.484Z,1.93
2019-03-19T10:51:04.099Z,2.40
2019-03-19T10:53:30.554Z,2.00
2019-03-19T10:55:58.119Z,2.70
2019-03-19T10:58:24.626Z,6.50
2019-03-19T11:00:51.063Z,5.60
2019-03-19T11:03:17.521Z,5.77
2019-03-19T11:05:43.904Z,11.10
2019-03-19T11:08:10.348Z,3.97
2019-03-19T11:10:36.825Z,3.70
2019-03-19T11:13:03.411Z,3.33
2019-03-19T11:15:31.588Z,2.03
2019-03-19T11:17:58.126Z,2.37
2019-03-19T11:20:24.887Z,3.50
2019-03-19T11:22:51.572Z,2.15
2019-03-19T11:25:28.460Z,3.23
2019-03-19T11:27:54.889Z,2.53
2019-03-19T11:30:22.649Z,2.60
2019-03-19T11:32:49.145Z,2.30
2019-03-19T11:35:15.863Z,4.23
2019-03-19T11:37:42.397Z,3.97
2019-03-19T11:40:14.674Z,4.33
2019-03-19T11:42:41.144Z,4.30
2019-03-19T11:45:16.113Z,5.20
2019-03-19T11:47:42.681Z,5.47
2019-03-19T11:50:14.756Z,3.03
2019-03-19T11:52:41.179Z,6.10
2019-03-19T11:55:10.117Z,4.50
2019-03-19T11:57:36.516Z,4.37
2019-03-19T12:00:26.005Z,4.50
2019-03-19T12:02:52.395Z,4.83
2019-03-19T12:05:18.835Z,4.83
2019-03-19T12:07:45.247Z,5.33
2019-03-19T12:10:11.753Z,5.07
2019-03-19T12:12:38.149Z,7.00
2019-03-19T12:15:08.737Z,6.33
2019-03-19T12:17:35.145Z,16.13
2019-03-19T12:20:03.734Z,8.57
2019-03-19T12:22:30.236Z,7.10
2019-03-19T12:24:56.709Z,7.70
2019-03-19T12:27:24.311Z,9.53
2019-03-19T12:29:50.861Z,15.83
2019-03-19T12:32:17.365Z,13.17
2019-03-19T12:34:43.797Z,12.00
2019-03-19T12:37:10.225Z,10.43
2019-03-19T12:39:36.659Z,13.93
2019-03-19T12:42:03.093Z,21.67
2019-03-19T12:44:29.571Z,13.80
2019-03-19T12:46:55.980Z,14.17
2019-03-19T12:49:22.417Z,16.07
2019-03-19T12:51:48.887Z,3.03
2019-03-19T12:54:15.388Z,9.23
2019-03-19T12:56:42.964Z,20.10
2019-03-19T12:59:19.875Z,2.90
2019-03-19T13:01:38.406Z,2.63
2019-03-19T13:04:04.983Z,3.40
2019-03-19T13:06:31.446Z,2.80
2019-03-19T13:08:58.909Z,2.97
2019-03-19T13:11:26.236Z,6.60
2019-03-19T13:13:52.782Z,11.67
2019-03-19T13:16:19.815Z,8.03
2019-03-19T13:18:46.317Z,7.90
2019-03-19T13:21:12.700Z,6.90
2019-03-19T13:23:39.107Z,7.20
2019-03-19T13:26:05.465Z,3.83
2019-03-19T13:28:32.889Z,9.00
2019-03-19T13:30:59.413Z,7.50
2019-03-19T13:33:25.801Z,6.03
2019-03-19T13:35:52.198Z,9.37
2019-03-19T13:38:18.672Z,3.47
2019-03-19T13:40:45.100Z,4.80
2019-03-19T13:43:11.537Z,5.23
2019-03-19T13:45:37.968Z,11.83
2019-03-19T13:48:04.401Z,5.47
2019-03-19T13:50:30.807Z,3.87
2019-03-19T13:52:57.261Z,4.57
2019-03-19T13:55:23.608Z,4.40
2019-03-19T13:57:50.111Z,2.80
2019-03-19T14:00:17.453Z,2.30
2019-03-19T14:02:44.094Z,4.47
2019-03-19T14:05:11.835Z,2.00
2019-03-19T14:07:38.669Z,2.33
2019-03-19T14:10:15.537Z,2.50
2019-03-19T14:12:42.113Z,2.30
2019-03-19T14:15:15.077Z,2.10
2019-03-19T14:17:42.712Z,1.97
2019-03-19T14:20:14.179Z,2.10
2019-03-19T14:22:40.807Z,2.30
2019-03-19T14:25:08.769Z,2.03
2019-03-19T14:27:35.201Z,4.67
2019-03-19T14:30:01.738Z,4.97
2019-03-19T14:32:29.305Z,7.97
2019-03-19T14:34:55.702Z,5.03
2019-03-19T14:37:22.091Z,10.70
2019-03-19T14:39:48.484Z,9.13
2019-03-19T14:42:14.823Z,5.57
2019-03-19T14:44:41.233Z,16.80
2019-03-19T14:47:07.566Z,4.43
2019-03-19T14:49:33.988Z,8.00
2019-03-19T14:52:00.320Z,8.67
2019-03-19T14:54:26.730Z,8.13
2019-03-19T14:56:53.137Z,6.40
2019-03-19T14:59:19.579Z,8.57
2019-03-19T15:01:46.064Z,9.33
2019-03-19T15:04:12.486Z,6.03
2019-03-19T15:06:38.901Z,6.63
2019-03-19T15:09:05.422Z,12.00
2019-03-19T15:11:32.112Z,8.30
2019-03-19T15:13:58.562Z,10.50
2019-03-19T15:16:25.002Z,6.00
2019-03-19T15:18:51.546Z,6.23
2019-03-19T15:21:18.018Z,10.60
2019-03-19T15:23:45.499Z,21.87
2019-03-19T15:26:12.046Z,30.83
2019-03-19T15:28:38.409Z,23.90
2019-03-19T15:31:04.842Z,19.23
2019-03-19T15:33:31.218Z,18.97
2019-03-19T15:35:58.593Z,15.07
2019-03-19T15:38:25.008Z,16.60
2019-03-19T15:40:51.476Z,11.03
2019-03-19T15:43:17.984Z,8.10
2019-03-19T15:45:44.448Z,10.57
2019-03-19T15:48:10.921Z,7.73
2019-03-19T15:50:37.342Z,9.07
2019-03-19T15:53:03.915Z,7.87
2019-03-19T15:55:30.285Z,7.33
2019-03-19T15:57:56.820Z,7.60
2019-03-19T16:00:23.169Z,8.63
2019-03-19T16:02:49.636Z,9.90
2019-03-19T16:05:16.088Z,9.77
2019-03-19T16:07:42.543Z,12.33
2019-03-19T16:10:17.560Z,6.67
2019-03-19T16:12:44.088Z,5.43
2019-03-19T16:15:12.536Z,9.13
2019-03-19T16:17:38.965Z,7.53
2019-03-19T16:20:09.191Z,9.30
2019-03-19T16:22:35.587Z,16.87
2019-03-19T16:25:02.004Z,18.23
2019-03-19T16:27:28.437Z,28.67
2019-03-19T16:29:54.816Z,26.93
2019-03-19T16:32:21.163Z,24.60
2019-03-19T16:34:47.607Z,45.40
2019-03-19T16:37:14.011Z,45.07
2019-03-19T16:39:40.435Z,43.33
2019-03-19T16:42:06.755Z,37.70
2019-03-19T16:44:33.161Z,40.97
2019-03-19T16:46:59.552Z,43.87
2019-03-19T16:49:25.999Z,42.53
2019-03-19T16:51:52.405Z,20.83
2019-03-19T16:54:18.811Z,18.93
2019-03-19T16:56:45.266Z,22.37
2019-03-19T16:59:11.772Z,24.23
2019-03-19T17:01:38.224Z,12.57
2019-03-19T17:04:04.641Z,6.20
2019-03-19T17:06:31.148Z,6.30
2019-03-19T17:08:57.590Z,4.80
2019-03-19T17:11:24.014Z,5.20
2019-03-19T17:13:50.545Z,5.87
2019-03-19T17:16:17.026Z,5.83
2019-03-19T17:18:43.550Z,6.43
2019-03-19T17:21:09.983Z,7.10
2019-03-19T17:23:36.423Z,7.80
2019-03-19T17:26:02.994Z,7.30
2019-03-19T17:28:30.635Z,6.70
2019-03-19T17:30:57.073Z,8.60
2019-03-19T17:33:23.683Z,7.40
2019-03-19T17:35:50.125Z,8.60
2019-03-19T17:38:16.590Z,6.63
2019-03-19T17:40:43.034Z,8.80
2019-03-19T17:43:09.541Z,26.17
2019-03-19T17:45:36.033Z,35.50
2019-03-19T17:48:02.803Z,24.40
2019-03-19T17:50:31.944Z,18.60
2019-03-19T17:52:58.455Z,16.33
2019-03-19T17:55:25.311Z,12.47
2019-03-19T17:57:52.047Z,13.50
2019-03-19T18:00:21.612Z,11.37
2019-03-19T18:02:48.143Z,12.10
2019-03-19T18:05:14.793Z,15.33
2019-03-19T18:07:41.153Z,16.13
2019-03-19T18:10:12.777Z,20.47
2019-03-19T18:12:40.526Z,16.33
2019-03-19T18:15:13.047Z,16.57
2019-03-19T18:17:39.582Z,12.93
2019-03-19T18:20:10.999Z,9.70
2019-03-19T18:22:37.470Z,8.93
2019-03-19T18:25:05.964Z,10.27
2019-03-19T18:27:32.444Z,12.83
2019-03-19T18:29:58.986Z,14.30
2019-03-19T18:32:34.679Z,12.83
2019-03-19T18:34:53.942Z,12.33
2019-03-19T18:37:20.389Z,9.27
2019-03-19T18:39:46.941Z,6.77
2019-03-19T18:42:13.446Z,6.40
2019-03-19T18:44:41.495Z,6.50
2019-03-19T18:47:08.000Z,6.60
2019-03-19T18:49:34.581Z,5.40
2019-03-19T18:52:01.040Z,5.27
2019-03-19T18:54:27.616Z,5.63
2019-03-19T18:56:54.114Z,4.73
2019-03-19T18:59:20.467Z,4.93
2019-03-19T19:01:46.940Z,4.47
2019-03-19T19:04:13.330Z,5.30
2019-03-19T19:06:39.850Z,6.07
2019-03-19T19:09:07.037Z,9.13
2019-03-19T19:11:33.548Z,9.63
2019-03-19T19:14:00.034Z,8.23
2019-03-19T19:16:26.627Z,5.90
2019-03-19T19:18:53.005Z,5.47
2019-03-19T19:21:19.484Z,5.63
2019-03-19T19:23:45.862Z,5.30
2019-03-19T19:26:12.581Z,5.77
2019-03-19T19:28:39.535Z,6.30
2019-03-19T19:31:06.135Z,7.53
2019-03-19T19:33:32.553Z,8.37
2019-03-19T19:35:59.039Z,8.90
2019-03-19T19:38:25.460Z,11.47
2019-03-19T19:40:51.871Z,10.50
2019-03-19T19:43:18.475Z,12.30
2019-03-19T19:45:45.369Z,15.13
2019-03-19T19:48:11.838Z,18.50
2019-03-19T19:50:38.290Z,20.87
2019-03-19T19:53:04.691Z,21.83
2019-03-19T19:55:31.166Z,19.77
2019-03-19T19:57:57.619Z,17.23
2019-03-19T20:00:24.102Z,16.23
2019-03-19T20:02:50.981Z,13.20
2019-03-19T20:05:17.699Z,12.27
2019-03-19T20:07:44.481Z,9.87
2019-03-19T20:10:19.629Z,9.73
2019-03-19T20:12:46.125Z,8.57
2019-03-19T20:15:12.567Z,7.57
2019-03-19T20:17:38.961Z,7.83
2019-03-19T20:20:12.296Z,7.83
2019-03-19T20:22:38.745Z,6.77
2019-03-19T20:25:05.855Z,7.07
2019-03-19T20:27:32.279Z,7.17
2019-03-19T20:29:58.933Z,8.50
2019-03-19T20:32:25.340Z,8.93
2019-03-19T20:34:51.991Z,8.23
2019-03-19T20:37:18.720Z,9.17
2019-03-19T20:39:45.209Z,11.73
2019-03-19T20:42:11.697Z,15.40
2019-03-19T20:44:38.213Z,19.20
2019-03-19T20:47:04.865Z,18.63
2019-03-19T20:49:31.505Z,18.33
2019-03-19T20:51:58.004Z,22.37
2019-03-19T20:54:24.488Z,17.97
2019-03-19T20:56:50.925Z,16.97
2019-03-19T20:59:17.338Z,25.00
2019-03-19T21:01:43.705Z,41.13
2019-03-19T21:04:10.134Z,58.47
2019-03-19T21:06:36.605Z,54.37
2019-03-19T21:09:05.985Z,49.83
2019-03-19T21:11:32.720Z,46.03
2019-03-19T21:13:59.159Z,45.13
2019-03-19T21:16:25.598Z,43.50
2019-03-19T21:18:51.966Z,35.70
2019-03-19T21:21:18.406Z,27.40
2019-03-19T21:23:44.806Z,24.63
2019-03-19T21:26:11.303Z,17.83
2019-03-19T21:28:37.744Z,19.77
2019-03-19T21:31:04.246Z,18.47
2019-03-19T21:33:30.717Z,13.60
2019-03-19T21:35:57.251Z,13.00
2019-03-19T21:38:23.727Z,10.20
2019-03-19T21:40:50.355Z,9.60
2019-03-19T21:43:16.842Z,9.37
2019-03-19T21:45:43.327Z,9.83
2019-03-19T21:48:09.823Z,8.60
2019-03-19T21:50:36.314Z,9.07
2019-03-19T21:53:02.797Z,9.20
2019-03-19T21:55:29.408Z,9.30
2019-03-19T21:57:57.006Z,8.37
2019-03-19T22:00:24.933Z,9.73
2019-03-19T22:02:51.466Z,10.43
2019-03-19T22:05:18.002Z,9.10
2019-03-19T22:07:44.433Z,9.57
2019-03-19T22:10:14.531Z,9.33
2019-03-19T22:12:41.013Z,8.70
2019-03-19T22:15:20.881Z,8.70
2019-03-19T22:17:47.307Z,9.73
2019-03-19T22:20:14.169Z,8.77
2019-03-19T22:22:40.612Z,10.33
2019-03-19T22:25:11.691Z,11.23
2019-03-19T22:27:38.116Z,10.83
2019-03-19T22:30:15.142Z,10.53
2019-03-19T22:32:41.538Z,9.87
2019-03-19T22:35:08.198Z,10.23
2019-03-19T22:37:34.602Z,8.00
2019-03-19T22:40:01.002Z,10.17
2019-03-19T22:42:27.354Z,11.37
2019-03-19T22:44:53.814Z,12.67
2019-03-19T22:47:20.197Z,16.50
2019-03-19T22:49:46.654Z,18.50
2019-03-19T22:52:13.124Z,19.07
2019-03-19T22:54:39.513Z,17.63
2019-03-19T22:57:05.935Z,16.73
2019-03-19T22:59:32.366Z,17.83
2019-03-19T23:01:58.963Z,19.97
2019-03-19T23:04:27.500Z,20.67
2019-03-19T23:06:53.552Z,18.03
2019-03-19T23:09:19.893Z,16.53
2019-03-19T23:11:46.301Z,16.10
2019-03-19T23:14:12.677Z,17.67
2019-03-19T23:16:39.153Z,16.60
2019-03-19T23:19:06.875Z,18.87
2019-03-19T23:21:33.411Z,18.00
2019-03-19T23:23:59.854Z,15.07
2019-03-19T23:26:26.370Z,14.43
2019-03-19T23:28:52.841Z,14.90
2019-03-19T23:31:19.323Z,14.53
2019-03-19T23:33:45.712Z,14.97
2019-03-19T23:36:12.191Z,14.43
2019-03-19T23:38:38.702Z,15.27
2019-03-19T23:41:05.094Z,13.43
2019-03-19T23:43:31.453Z,16.07
2019-03-19T23:45:57.857Z,16.60
2019-03-19T23:48:24.173Z,14.93
2019-03-19T23:50:50.598Z,13.30
2019-03-19T23:53:16.971Z,13.77
2019-03-19T23:55:43.380Z,13.53
2019-03-19T23:58:09.759Z,13.17
